地図

経路データ

SID SEASON NUMBER BASIN SUBBASIN NAME ISO_TIME NATURE LAT LON WMO_WIND WMO_PRES WMO_AGENCY TRACK_TYPE DIST2LAND LANDFALL IFLAG USA_AGENCY USA_ATCF_ID USA_LAT USA_LON USA_RECORD USA_STATUS USA_WIND USA_PRES USA_SSHS USA_R34_NE USA_R34_SE USA_R34_SW USA_R34_NW USA_R50_NE USA_R50_SE USA_R50_SW USA_R50_NW USA_R64_NE USA_R64_SE USA_R64_SW USA_R64_NW USA_POCI USA_ROCI USA_RMW USA_EYE TOKYO_LAT TOKYO_LON TOKYO_GRADE TOKYO_WIND TOKYO_PRES TOKYO_R50_DIR TOKYO_R50_LONG TOKYO_R50_SHORT TOKYO_R30_DIR TOKYO_R30_LONG TOKYO_R30_SHORT TOKYO_LAND CMA_LAT CMA_LON CMA_CAT CMA_WIND CMA_PRES HKO_LAT HKO_LON HKO_CAT HKO_WIND HKO_PRES NEWDELHI_LAT NEWDELHI_LON NEWDELHI_GRADE NEWDELHI_WIND NEWDELHI_PRES NEWDELHI_CI NEWDELHI_DP NEWDELHI_POCI REUNION_LAT REUNION_LON REUNION_TYPE REUNION_WIND REUNION_PRES REUNION_TNUM REUNION_CI REUNION_RMW REUNION_R34_NE REUNION_R34_SE REUNION_R34_SW REUNION_R34_NW REUNION_R50_NE REUNION_R50_SE REUNION_R50_SW REUNION_R50_NW REUNION_R64_NE REUNION_R64_SE REUNION_R64_SW REUNION_R64_NW BOM_LAT BOM_LON BOM_TYPE BOM_WIND BOM_PRES BOM_TNUM BOM_CI BOM_RMW BOM_R34_NE BOM_R34_SE BOM_R34_SW BOM_R34_NW BOM_R50_NE BOM_R50_SE BOM_R50_SW BOM_R50_NW BOM_R64_NE BOM_R64_SE BOM_R64_SW BOM_R64_NW BOM_ROCI BOM_POCI BOM_EYE BOM_POS_METHOD BOM_PRES_METHOD NADI_LAT NADI_LON NADI_CAT NADI_WIND NADI_PRES WELLINGTON_LAT WELLINGTON_LON WELLINGTON_WIND WELLINGTON_PRES DS824_LAT DS824_LON DS824_STAGE DS824_WIND DS824_PRES TD9636_LAT TD9636_LON TD9636_STAGE TD9636_WIND TD9636_PRES TD9635_LAT TD9635_LON TD9635_WIND TD9635_PRES TD9635_ROCI NEUMANN_LAT NEUMANN_LON NEUMANN_CLASS NEUMANN_WIND NEUMANN_PRES MLC_LAT MLC_LON MLC_CLASS MLC_WIND MLC_PRES USA_GUST BOM_GUST BOM_GUST_PER REUNION_GUST REUNION_GUST_PER USA_SEAHGT USA_SEARAD_NE USA_SEARAD_SE USA_SEARAD_SW USA_SEARAD_NW STORM_SPEED STORM_DIR
1942265N21155 1942 55 WP MM NOT_NAMED 1942-09-21 21:00:00 NR 20.7000 155.300 main 2175 2097 __________O___ -1 20.7000 155.300 4 18 293
1942265N21155 1942 55 WP MM NOT_NAMED 1942-09-22 00:00:00 NR 21.0502 154.403 main 2082 2005 __________P___ -1 21.0502 154.403 4 18 293
1942265N21155 1942 55 WP MM NOT_NAMED 1942-09-22 03:00:00 NR 21.4085 153.503 main 1999 1914 __________P___ -1 21.4085 153.503 4 18 294
1942265N21155 1942 55 WP MM NOT_NAMED 1942-09-22 06:00:00 NR 21.7875 152.601 main 1908 1824 __________P___ -1 21.7875 152.601 4 19 295
1942265N21155 1942 55 WP MM NOT_NAMED 1942-09-22 09:00:00 NR 22.2000 151.700 main 1818 1729 __________O___ -1 22.2000 151.700 4 19 298
1942265N21155 1942 55 WP MM NOT_NAMED 1942-09-22 12:00:00 NR 22.6566 150.800 main 1720 1638 __________P___ -1 22.6566 150.800 4 19 300
1942265N21155 1942 55 WP MM NOT_NAMED 1942-09-22 15:00:00 NR 23.1589 149.910 main 1623 1533 __________P___ -1 23.1589 149.910 4 19 303
1942265N21155 1942 55 WP MM NOT_NAMED 1942-09-22 18:00:00 NR 23.7068 149.040 main 1527 1427 __________P___ -1 23.7068 149.040 4 19 306
1942265N21155 1942 55 WP MM NOT_NAMED 1942-09-22 21:00:00 NR 24.3000 148.200 main 1427 1328 __________O___ -1 24.3000 148.200 4 19 307
1942265N21155 1942 55 WP MM NOT_NAMED 1942-09-23 00:00:00 NR 24.8869 147.346 main 1322 1229 __________P___ -1 24.8869 147.346 4 20 309
1942265N21155 1942 55 WP MM NOT_NAMED 1942-09-23 03:00:00 NR 25.5226 146.528 main 1224 1122 __________P___ -1 25.5226 146.528 4 20 313
1942265N21155 1942 55 WP MM NOT_NAMED 1942-09-23 06:00:00 NR 26.2218 145.771 main 1122 1010 __________P___ -1 26.2218 145.771 4 20 319
1942265N21155 1942 55 WP MM NOT_NAMED 1942-09-23 09:00:00 NR 27.0000 145.100 main 1010 899 __________O___ -1 27.0000 145.100 4 21 321
1942265N21155 1942 55 WP MM NOT_NAMED 1942-09-23 12:00:00 NR 27.8129 144.329 main 894 778 __________P___ -1 27.8129 144.329 4 21 324
1942265N21155 1942 55 WP MM NOT_NAMED 1942-09-23 15:00:00 NR 28.7099 143.671 main 778 671 __________P___ -1 28.7099 143.671 4 21 333
1942265N21155 1942 55 WP MM NOT_NAMED 1942-09-23 18:00:00 NR 29.7017 143.252 main 661 560 __________P___ -1 29.7017 143.252 4 21 349
1942265N21155 1942 55 WP MM NOT_NAMED 1942-09-23 21:00:00 NR 30.8000 143.200 main 551 463 __________O___ -1 30.8000 143.200 4 24 8
1942265N21155 1942 55 WP MM NOT_NAMED 1942-09-24 00:00:00 NR 32.0859 143.655 main 460 409 __________P___ -1 32.0859 143.655 4 29 23
1942265N21155 1942 55 WP MM NOT_NAMED 1942-09-24 03:00:00 NR 33.4559 144.505 main 410 405 __________P___ -1 33.4559 144.505 4 32 31
1942265N21155 1942 55 WP MM NOT_NAMED 1942-09-24 06:00:00 NR 34.7971 145.607 main 437 437 __________P___ -1 34.7971 145.607 4 32 37
1942265N21155 1942 55 WP MM NOT_NAMED 1942-09-24 09:00:00 NR 36.0000 146.800 main 528 528 __________O___ -1 36.0000 146.800 4 29 41
1942265N21155 1942 55 WP MM NOT_NAMED 1942-09-24 12:00:00 NR 36.9882 147.944 main 576 576 __________P___ -1 36.9882 147.944 4 25 45
1942265N21155 1942 55 WP MM NOT_NAMED 1942-09-24 15:00:00 NR 37.7952 149.026 main 626 626 __________P___ -1 37.7952 149.026 4 22 48
1942265N21155 1942 55 WP MM NOT_NAMED 1942-09-24 18:00:00 NR 38.4801 150.069 main 649 643 __________P___ -1 38.4801 150.069 4 21 51
1942265N21155 1942 55 WP MM NOT_NAMED 1942-09-24 21:00:00 NR 39.1000 151.100 main 652 __________O___ -1 39.1000 151.100 4 20 52

デジタル台風データ・検索

IBTrACS Databaseについて

本データベースは、米国NOAAが公開する1842年以降の世界の熱帯低気圧のベストトラックデータアーカイブInternational Best Track Archive for Climate Stewardship (IBTrACS)を、ウェブで閲覧しやすい形式に変換したものです。

最終更新日:2021-10-21